This is the latest recevied weather packets stored in our database for station/object KBTL-WX. If no packets are shown the sender has not sent any weather packets the latest 10 day(s).
| Time | Temp. | Humidity | Pressure | Rain* | Wind** | Luminosity | Snow |
|---|---|---|---|---|---|---|---|
| 1777577426 | 11.11° C | 41% | 982.7 hPa | 0 mm | - | - | - |
| 1777576514 | 10.56° C | 41% | 982.7 hPa | 0 mm | - | - | - |
| 1777575635 | 10.56° C | 41% | 982.7 hPa | 0 mm | - | - | - |
| 1777574714 | 10.56° C | 41% | 982.8 hPa | 0 mm | - | - | - |
| 1777573825 | 10.56° C | 46% | 982.6 hPa | 0 mm | - | - | - |
| 1777572913 | 10° C | 46% | 982.5 hPa | 0 mm | - | - | - |
| 1777572036 | 10° C | 46% | 982.5 hPa | 0 mm | - | - | - |
| 1777571113 | 9.44° C | 50% | 983.1 hPa | 0 mm | - | - | - |
| 1777570230 | 9.44° C | 53% | 983.3 hPa | 0 mm | - | - | - |
| 1777569314 | 8.89° C | 53% | 983.3 hPa | 0 mm | - | - | - |
| 1777568435 | 8.89° C | 53% | 983.3 hPa | 0 mm | - | - | - |
| 1777567513 | 8.89° C | 62% | 982.1 hPa | 0 mm | - | - | - |
| 1777566630 | 8.89° C | 63% | 982.6 hPa | 0 mm | - | - | - |
| 1777565713 | 8.89° C | 63% | 982.6 hPa | 0 mm | - | - | - |
| 1777564838 | 8.33° C | 63% | 982.6 hPa | 0 mm | - | - | - |
| 1777563912 | 8.33° C | 71% | 982.6 hPa | 0 mm | - | - | - |
| 1777563032 | 7.78° C | 71% | 983 hPa | 0 mm | - | - | - |
| 1777562114 | 7.78° C | 71% | 983 hPa | 0 mm | - | - | - |
| 1777561233 | 7.22° C | 71% | 983 hPa | 0 mm | - | - | - |
| 1777560315 | 7.22° C | 78% | 981.8 hPa | 0 mm | - | - | - |
| 1777559434 | 6.67° C | 77% | 983.4 hPa | 0 mm | - | - | - |
| 1777558514 | 6.67° C | 77% | 983.4 hPa | 0 mm | - | - | - |
| 1777557641 | 6.67° C | 77% | 983.4 hPa | 0 mm | - | - | - |
| 1777556714 | 6.11° C | 81% | 982.9 hPa | 0 mm | - | - | - |
| 1777555832 | 6.11° C | 81% | 982.9 hPa | 0 mm | - | - | - |
* Rain latest hour (hover to see other rain measurements)
** Current wind speed in m/s (hover to see current wind gust speed)